Time;durP1;ratioP1;P1;durP2;ratioP2;P2;SDS_P1;SDS_P2;PMS_P1;PMS_P2;Temp;Humidity;BMP_temperature;BMP_pressure;BME280_temperature;BME280_humidity;BME280_pressure;Samples;Min_cycle;Max_cycle;Signal;HPM_P1;HPM_P2
2023/03/14 00:00:56;;;;;;;17.05;3.80;;;10.00;99.90;;;;;;5158330;27;20130;-79
2023/03/14 00:03:22;;;;;;;15.43;3.35;;;10.50;99.90;;;;;;5158198;27;20042;-79
2023/03/14 00:05:47;;;;;;;20.02;3.50;;;10.20;99.90;;;;;;5158241;27;20470;-79
2023/03/14 00:08:13;;;;;;;19.17;4.72;;;10.10;99.90;;;;;;5158000;27;20046;-79
2023/03/14 00:10:39;;;;;;;19.50;4.25;;;10.10;99.90;;;;;;5158067;27;20045;-80
2023/03/14 00:13:05;;;;;;;24.45;4.47;;;10.20;99.90;;;;;;5158082;27;20047;-81
2023/03/14 00:15:33;;;;;;;19.23;3.95;;;10.20;99.90;;;;;;5158022;27;20035;-79
2023/03/14 00:17:59;;;;;;;16.58;3.80;;;10.20;99.90;;;;;;5158222;27;20085;-80
2023/03/14 00:20:24;;;;;;;16.13;3.38;;;10.10;99.90;;;;;;5157854;27;20378;-79
2023/03/14 00:22:50;;;;;;;17.75;4.30;;;10.20;99.90;;;;;;5157836;27;20046;-80
2023/03/14 00:25:16;;;;;;;14.70;4.95;;;10.10;99.90;;;;;;5158251;27;20405;-79
2023/03/14 00:27:41;;;;;;;14.05;3.40;;;10.00;99.90;;;;;;5158108;27;20035;-80
2023/03/14 00:30:08;;;;;;;11.90;3.72;;;10.10;99.90;;;;;;5139635;27;20107;-80
2023/03/14 00:32:33;;;;;;;19.95;4.43;;;10.00;99.90;;;;;;5139182;27;20481;-80
2023/03/14 00:35:00;;;;;;;12.57;3.72;;;10.00;99.90;;;;;;5157671;27;20091;-81
2023/03/14 00:37:27;;;;;;;15.38;4.53;;;9.90;99.90;;;;;;5139004;27;20513;-81
2023/03/14 00:39:52;;;;;;;17.48;5.30;;;9.80;99.90;;;;;;5157538;27;20053;-82
2023/03/14 00:42:18;;;;;;;16.70;4.40;;;9.80;99.90;;;;;;5157225;27;20393;-83
2023/03/14 00:44:43;;;;;;;10.80;4.70;;;9.80;99.90;;;;;;5158059;27;20043;-83
2023/03/14 00:47:09;;;;;;;12.75;4.45;;;9.70;99.90;;;;;;5139012;27;20042;-82
2023/03/14 00:49:35;;;;;;;20.48;4.50;;;9.70;99.90;;;;;;5157343;27;20470;-82
2023/03/14 00:52:00;;;;;;;14.60;4.47;;;9.60;99.90;;;;;;5157157;27;20094;-82
2023/03/14 00:54:26;;;;;;;14.52;4.88;;;9.70;99.90;;;;;;5157181;27;20049;-83
2023/03/14 00:56:52;;;;;;;14.70;5.13;;;9.60;99.90;;;;;;5157251;27;20039;-82
2023/03/14 00:59:17;;;;;;;14.05;4.78;;;9.70;99.90;;;;;;5138587;27;20126;-83
2023/03/14 01:01:43;;;;;;;16.33;5.07;;;9.70;99.90;;;;;;5138855;27;20043;-82
2023/03/14 01:04:09;;;;;;;13.82;5.03;;;9.70;99.90;;;;;;5157085;27;20053;-83
2023/03/14 01:06:35;;;;;;;12.67;5.00;;;9.80;99.90;;;;;;5121673;27;20423;-83
2023/03/14 01:09:01;;;;;;;22.02;5.35;;;9.70;99.90;;;;;;5138384;27;20041;-83
2023/03/14 01:11:32;;;;;;;9.60;3.40;;;9.70;99.90;;;;;;5139218;27;20043;-83
2023/03/14 01:13:58;;;;;;;7.40;2.50;;;9.70;99.90;;;;;;5138374;27;20046;-84
2023/03/14 01:16:28;;;;;;;5.38;2.53;;;9.60;99.90;;;;;;5121733;27;20046;-84
2023/03/14 01:18:54;;;;;;;6.75;2.63;;;9.50;99.90;;;;;;5138635;27;20058;-83
2023/03/14 01:21:25;;;;;;;10.18;2.45;;;9.40;99.90;;;;;;5156778;27;20050;-83
2023/03/14 01:23:52;;;;;;;10.70;3.30;;;9.30;99.90;;;;;;5121226;27;20047;-83
2023/03/14 01:26:21;;;;;;;11.50;3.78;;;9.20;99.90;;;;;;5120944;27;20054;-83
2023/03/14 01:28:47;;;;;;;12.45;4.00;;;9.10;99.90;;;;;;5138239;27;20092;-83
2023/03/14 01:31:13;;;;;;;15.85;4.50;;;9.10;99.90;;;;;;5120880;27;20047;-83
2023/03/14 01:33:40;;;;;;;11.27;4.35;;;9.10;99.90;;;;;;5138287;27;20079;-83
2023/03/14 01:36:06;;;;;;;10.43;4.43;;;9.80;99.90;;;;;;5156358;27;20393;-83
2023/03/14 01:38:34;;;;;;;15.00;4.53;;;9.10;99.90;;;;;;5138601;27;20035;-84
2023/03/14 01:41:00;;;;;;;11.57;4.60;;;9.10;99.90;;;;;;5137846;27;20039;-84
2023/03/14 01:43:26;;;;;;;9.77;4.30;;;9.10;99.90;;;;;;5138151;27;20046;-83
2023/03/14 01:45:58;;;;;;;11.75;4.28;;;9.10;99.90;;;;;;5155359;27;20117;-83
2023/03/14 01:48:27;;;;;;;14.98;4.47;;;9.10;99.90;;;;;;5156050;27;20099;-84
2023/03/14 01:50:53;;;;;;;11.25;4.00;;;9.10;99.90;;;;;;5120380;27;20069;-84
2023/03/14 01:53:21;;;;;;;16.38;4.28;;;9.10;99.90;;;;;;5156478;27;20042;-83
2023/03/14 01:55:49;;;;;;;18.33;4.47;;;9.30;99.90;;;;;;5156335;27;20050;-83
2023/03/14 01:58:16;;;;;;;12.15;3.97;;;9.00;99.90;;;;;;5120644;27;20163;-84
2023/03/14 02:00:42;;;;;;;14.35;4.20;;;9.10;99.90;;;;;;5155891;27;20053;-84
2023/03/14 02:03:16;;;;;;;14.85;4.70;;;9.10;99.90;;;;;;5155901;27;20038;-83
2023/03/14 02:05:43;;;;;;;13.70;3.83;;;9.10;99.90;;;;;;5156408;27;20046;-83
2023/03/14 02:08:17;;;;;;;12.10;4.93;;;9.10;99.90;;;;;;5137357;27;20049;-84
2023/03/14 02:10:49;;;;;;;15.43;4.50;;;9.50;99.90;;;;;;5120573;27;20125;-84
2023/03/14 02:13:17;;;;;;;15.52;4.43;;;9.40;99.90;;;;;;5137455;27;20050;-83
2023/03/14 02:15:42;;;;;;;11.95;3.88;;;9.10;99.90;;;;;;5155667;27;20039;-83
2023/03/14 02:18:10;;;;;;;14.75;3.88;;;9.20;99.90;;;;;;5155670;27;20087;-83
2023/03/14 02:20:41;;;;;;;;;;;9.00;99.90;;;;;;5156076;27;20078;-83
2023/03/14 02:23:07;;;;;;;16.77;4.43;;;9.00;99.90;;;;;;5137786;27;19926;-83
2023/03/14 02:25:51;;;;;;;17.02;4.38;;;9.00;99.90;;;;;;5155540;27;20051;-83
2023/03/14 02:28:17;;;;;;;14.55;3.53;;;9.00;99.90;;;;;;5137126;27;20042;-83
2023/03/14 02:30:43;;;;;;;15.83;4.50;;;9.00;99.90;;;;;;5136937;27;20154;-83
2023/03/14 02:33:12;;;;;;;10.50;3.47;;;9.00;99.90;;;;;;5137572;27;20400;-83
2023/03/14 02:36:04;;;;;;;16.77;3.80;;;9.60;99.90;;;;;;5155676;27;20482;-84
2023/03/14 02:38:41;;;;;;;6.82;2.70;;;9.00;99.90;;;;;;5137400;27;20082;-83
2023/03/14 02:41:07;;;;;;;;;;;9.00;99.90;;;;;;5137076;27;20042;-83
2023/03/14 02:43:33;;;;;;;9.32;2.85;;;9.00;99.90;;;;;;5137668;27;19975;-83
2023/03/14 02:46:00;;;;;;;7.70;2.65;;;9.10;99.90;;;;;;5137114;27;20381;-83
2023/03/14 02:48:26;;;;;;;;;;;9.90;99.90;;;;;;5120161;27;20039;-83
2023/03/14 02:51:01;;;;;;;10.23;2.53;;;9.10;99.90;;;;;;5136698;27;19923;-83
2023/03/14 02:53:29;;;;;;;8.65;3.13;;;9.10;99.90;;;;;;5136796;27;20042;-83
2023/03/14 02:55:55;;;;;;;9.60;2.63;;;9.10;99.90;;;;;;5155239;27;20095;-83
2023/03/14 02:58:21;;;;;;;7.88;2.78;;;9.40;99.90;;;;;;5156720;27;20125;-83
2023/03/14 03:00:47;;;;;;;6.83;3.13;;;9.20;99.90;;;;;;5124137;27;20066;-82
2023/03/14 03:03:13;;;;;;;10.03;2.67;;;9.10;99.90;;;;;;5159480;27;20046;-82
2023/03/14 03:05:39;;;;;;;8.80;2.20;;;9.20;99.90;;;;;;5159369;27;20043;-83
2023/03/14 03:08:04;;;;;;;6.18;2.33;;;9.10;99.90;;;;;;5140743;27;20087;-83
2023/03/14 03:10:31;;;;;;;6.95;2.45;;;9.60;99.90;;;;;;5141145;27;20043;-83
2023/03/14 03:12:56;;;;;;;9.25;2.30;;;9.10;99.90;;;;;;5158943;27;20562;-83
2023/03/14 03:15:23;;;;;;;11.80;2.90;;;9.10;99.90;;;;;;5141028;27;20046;-83
2023/03/14 03:17:48;;;;;;;7.63;2.78;;;9.70;99.90;;;;;;5159116;27;20034;-83
2023/03/14 03:20:14;;;;;;;7.63;2.58;;;9.00;99.90;;;;;;5140838;27;20042;-83
2023/03/14 03:22:39;;;;;;;8.13;2.85;;;9.00;99.90;;;;;;5140533;27;20043;-83
2023/03/14 03:25:07;;;;;;;14.05;3.25;;;9.00;99.90;;;;;;5158996;27;20062;-83
2023/03/14 03:27:34;;;;;;;11.52;2.65;;;9.00;99.90;;;;;;5159278;27;20441;-83
2023/03/14 03:30:00;;;;;;;9.88;2.88;;;9.00;99.90;;;;;;5141104;27;20057;-83
2023/03/14 03:32:26;;;;;;;6.32;2.63;;;9.50;99.90;;;;;;5158837;27;20042;-82
2023/03/14 03:34:52;;;;;;;9.88;2.60;;;9.20;99.90;;;;;;5123453;27;20039;-83
2023/03/14 03:37:17;;;;;;;8.52;3.03;;;8.90;99.90;;;;;;5140488;27;20049;-83
2023/03/14 03:39:43;;;;;;;5.88;2.40;;;8.90;99.90;;;;;;5159336;27;20045;-83
2023/03/14 03:42:09;;;;;;;7.72;2.53;;;9.00;99.90;;;;;;5141002;27;20474;-83
2023/03/14 03:44:35;;;;;;;6.87;2.33;;;8.90;99.90;;;;;;5140400;27;20390;-83
2023/03/14 03:47:01;;;;;;;8.65;2.97;;;8.90;99.90;;;;;;5158510;27;20042;-83
2023/03/14 03:49:32;;;;;;;7.50;2.88;;;8.80;99.90;;;;;;5139954;27;20125;-83
2023/03/14 03:51:58;;;;;;;9.88;2.78;;;8.80;99.90;;;;;;5158553;27;20057;-83
2023/03/14 03:54:24;;;;;;;10.32;2.70;;;8.80;99.90;;;;;;5158869;27;20544;-83
2023/03/14 03:56:51;;;;;;;9.27;2.45;;;8.80;99.90;;;;;;5140131;27;20046;-83
2023/03/14 03:59:17;;;;;;;11.23;2.65;;;8.90;99.90;;;;;;5158324;27;20039;-83
2023/03/14 04:01:42;;;;;;;7.05;2.65;;;8.80;99.90;;;;;;5158395;27;20054;-83
2023/03/14 04:04:08;;;;;;;13.95;2.70;;;8.90;99.90;;;;;;5158411;27;20043;-83
2023/03/14 04:06:34;;;;;;;10.70;2.42;;;8.80;99.90;;;;;;5139874;27;20085;-83
2023/03/14 04:08:59;;;;;;;12.93;2.45;;;8.70;99.90;;;;;;5157613;27;20078;-82
2023/03/14 04:11:25;;;;;;;10.73;2.75;;;8.70;99.90;;;;;;5158097;27;20460;-82
2023/03/14 04:13:50;;;;;;;10.90;2.60;;;8.70;99.90;;;;;;5158610;27;20043;-83
2023/03/14 04:16:19;;;;;;;9.60;2.70;;;8.70;99.90;;;;;;5139737;27;20044;-83
2023/03/14 04:18:45;;;;;;;7.40;2.90;;;8.70;99.90;;;;;;5139447;27;20083;-83
2023/03/14 04:21:11;;;;;;;6.00;2.40;;;8.80;99.90;;;;;;5139608;27;20042;-83
2023/03/14 04:23:36;;;;;;;10.73;3.03;;;8.80;99.90;;;;;;5157856;27;20043;-83
2023/03/14 04:26:02;;;;;;;10.20;2.95;;;8.80;99.90;;;;;;5139478;27;20050;-83
2023/03/14 04:28:28;;;;;;;16.48;3.20;;;8.80;99.90;;;;;;5157770;27;20042;-82
2023/03/14 04:30:53;;;;;;;10.48;2.97;;;8.70;99.90;;;;;;5139490;27;20034;-83
2023/03/14 04:33:19;;;;;;;14.38;3.35;;;8.70;99.90;;;;;;5157710;27;20043;-83
2023/03/14 04:35:46;;;;;;;9.43;3.63;;;9.00;99.90;;;;;;5122354;27;20490;-83
2023/03/14 04:38:12;;;;;;;8.23;3.30;;;9.50;99.90;;;;;;5157566;27;20417;-83
2023/03/14 04:40:41;;;;;;;10.05;3.47;;;9.50;99.90;;;;;;5157248;27;20483;-83
2023/03/14 04:43:09;;;;;;;9.07;3.90;;;8.70;99.90;;;;;;5157850;27;20081;-82
2023/03/14 04:45:35;;;;;;;7.13;3.50;;;8.70;99.90;;;;;;5157415;27;20095;-82
2023/03/14 04:48:02;;;;;;;9.55;3.63;;;8.70;99.90;;;;;;5157335;27;20035;-82
2023/03/14 04:50:27;;;;;;;10.03;3.93;;;8.70;99.90;;;;;;5157257;27;20094;-82
2023/03/14 04:52:53;;;;;;;11.32;4.30;;;8.70;99.90;;;;;;5157215;27;20326;-82
2023/03/14 04:55:18;;;;;;;9.65;3.90;;;8.70;99.90;;;;;;5139068;27;20393;-82
2023/03/14 04:57:44;;;;;;;11.20;3.80;;;8.70;99.90;;;;;;5138821;27;20466;-82
2023/03/14 05:00:10;;;;;;;9.98;4.00;;;8.70;99.90;;;;;;5157121;27;20496;-83
2023/03/14 05:02:36;;;;;;;7.73;3.97;;;8.70;99.90;;;;;;5121600;27;20393;-83
2023/03/14 05:05:01;;;;;;;15.63;4.25;;;8.60;99.90;;;;;;5138793;27;20035;-83
2023/03/14 05:07:27;;;;;;;9.73;3.95;;;8.70;99.90;;;;;;5138811;27;20038;-82
2023/03/14 05:09:53;;;;;;;9.30;3.70;;;8.70;99.90;;;;;;5156981;27;20047;-83
2023/03/14 05:12:19;;;;;;;7.00;3.35;;;8.70;99.90;;;;;;5156812;27;20485;-83
2023/03/14 05:14:45;;;;;;;11.48;3.80;;;8.70;99.90;;;;;;5156781;27;20481;-83
2023/03/14 05:17:13;;;;;;;8.48;3.70;;;8.70;99.90;;;;;;5138372;27;20117;-83
2023/03/14 05:19:38;;;;;;;9.32;3.35;;;8.90;99.90;;;;;;5156728;27;20054;-82
2023/03/14 05:22:04;;;;;;;8.18;4.03;;;8.70;99.90;;;;;;5155853;27;20047;-82
2023/03/14 05:24:29;;;;;;;7.72;3.28;;;8.70;99.90;;;;;;5157187;27;20086;-83
2023/03/14 05:26:55;;;;;;;8.30;3.38;;;8.70;99.90;;;;;;5138892;27;20134;-83
2023/03/14 05:29:21;;;;;;;13.50;3.53;;;9.20;99.90;;;;;;5156536;27;20082;-82
2023/03/14 05:31:46;;;;;;;14.20;3.70;;;9.40;99.90;;;;;;5139111;27;20377;-82
2023/03/14 05:34:12;;;;;;;7.75;3.60;;;8.60;99.90;;;;;;5156599;27;20035;-82
2023/03/14 05:36:38;;;;;;;10.75;3.75;;;8.60;99.90;;;;;;5138092;27;20054;-82
2023/03/14 05:39:03;;;;;;;11.67;4.00;;;8.60;99.90;;;;;;5156665;27;20125;-82
2023/03/14 05:41:29;;;;;;;11.52;3.47;;;8.60;99.90;;;;;;5137845;27;20078;-83
2023/03/14 05:43:55;;;;;;;10.98;2.95;;;8.60;99.90;;;;;;5137750;27;20047;-83
2023/03/14 05:46:20;;;;;;;9.40;3.40;;;8.60;99.90;;;;;;5156243;27;20053;-83
2023/03/14 05:48:46;;;;;;;11.15;3.35;;;8.50;99.90;;;;;;5156011;27;20458;-83
2023/03/14 05:51:11;;;;;;;11.18;3.50;;;8.50;99.90;;;;;;5156065;27;20096;-83
2023/03/14 05:53:37;;;;;;;10.93;3.35;;;8.60;99.90;;;;;;5137879;27;20121;-83
2023/03/14 05:56:03;;;;;;;11.73;3.42;;;8.60;99.90;;;;;;5137608;27;20541;-83
2023/03/14 05:58:28;;;;;;;12.48;3.25;;;8.60;99.90;;;;;;5137757;27;20371;-82
2023/03/14 06:00:54;;;;;;;8.75;2.72;;;8.60;99.90;;;;;;5155952;27;20039;-82
2023/03/14 06:03:20;;;;;;;9.90;2.95;;;8.60;99.90;;;;;;5137712;27;20470;-82
2023/03/14 06:05:45;;;;;;;8.32;3.28;;;9.00;99.90;;;;;;5155871;27;20045;-82
2023/03/14 06:08:11;;;;;;;12.82;3.00;;;8.60;99.90;;;;;;5137245;27;20470;-82
2023/03/14 06:10:37;;;;;;;11.07;3.05;;;8.70;99.90;;;;;;5155849;27;20082;-82
2023/03/14 06:13:03;;;;;;;10.45;3.30;;;8.70;99.90;;;;;;5155842;27;20522;-82
2023/03/14 06:15:28;;;;;;;10.13;2.95;;;8.70;99.90;;;;;;5155724;27;20050;-83
2023/03/14 06:17:55;;;;;;;9.40;2.75;;;8.70;99.90;;;;;;5155735;27;20130;-82
2023/03/14 06:20:21;;;;;;;8.88;3.05;;;8.70;99.90;;;;;;5155558;27;20117;-82
2023/03/14 06:22:47;;;;;;;10.48;2.50;;;8.70;99.90;;;;;;5137166;27;20554;-82
2023/03/14 06:25:12;;;;;;;10.13;2.63;;;8.70;99.90;;;;;;5156059;27;20042;-82
2023/03/14 06:27:38;;;;;;;9.07;2.85;;;8.70;99.90;;;;;;5155807;27;20038;-82
2023/03/14 06:30:04;;;;;;;11.48;3.20;;;8.70;99.90;;;;;;5120297;27;20042;-83
2023/03/14 06:32:30;;;;;;;9.80;3.03;;;8.70;99.90;;;;;;5155335;27;20082;-83
2023/03/14 06:34:57;;;;;;;8.02;3.42;;;8.70;99.90;;;;;;5155430;27;20787;-83
2023/03/14 06:37:22;;;;;;;11.40;3.50;;;8.70;99.90;;;;;;5155422;27;20134;-83
2023/03/14 06:39:48;;;;;;;9.95;3.50;;;8.80;99.90;;;;;;5137221;27;20121;-83
2023/03/14 06:42:13;;;;;;;17.67;3.78;;;8.80;99.90;;;;;;5155417;27;20046;-83
2023/03/14 06:44:39;;;;;;;9.25;3.03;;;8.80;99.90;;;;;;5155436;27;20516;-83
2023/03/14 06:47:05;;;;;;;12.88;3.80;;;8.80;99.90;;;;;;5155300;27;20038;-83
2023/03/14 06:49:30;;;;;;;9.80;3.47;;;9.10;99.90;;;;;;5136820;27;20038;-83
2023/03/14 06:51:56;;;;;;;9.48;3.30;;;9.00;99.90;;;;;;5136772;27;20125;-84
2023/03/14 06:54:21;;;;;;;14.38;3.85;;;8.80;99.90;;;;;;5155361;27;20051;-83
2023/03/14 06:56:47;;;;;;;7.40;3.42;;;8.80;99.90;;;;;;5137169;27;20080;-83
2023/03/14 06:59:13;;;;;;;14.85;3.92;;;8.80;99.90;;;;;;5136760;27;20201;-83
2023/03/14 07:01:39;;;;;;;10.18;3.30;;;9.10;99.90;;;;;;5155441;27;20042;-83
2023/03/14 07:04:06;;;;;;;10.82;3.17;;;8.90;99.90;;;;;;5136967;27;20533;-83
2023/03/14 07:06:33;;;;;;;11.57;3.83;;;9.00;99.90;;;;;;5155075;27;20042;-84
2023/03/14 07:08:59;;;;;;;10.73;3.83;;;8.90;99.90;;;;;;5155062;27;20039;-84
2023/03/14 07:11:25;;;;;;;11.32;3.47;;;9.00;99.90;;;;;;5136858;27;20091;-84
2023/03/14 07:13:50;;;;;;;13.90;3.65;;;8.90;99.90;;;;;;5155002;27;20047;-83
2023/03/14 07:16:16;;;;;;;12.00;4.15;;;9.70;99.90;;;;;;5136680;27;20103;-84
2023/03/14 07:18:42;;;;;;;11.27;4.32;;;9.00;99.90;;;;;;5102882;27;20064;-83
2023/03/14 07:21:12;;;;;;;11.07;3.42;;;9.20;99.90;;;;;;5136734;27;20051;-83
2023/03/14 07:23:38;;;;;;;10.18;3.50;;;9.10;99.90;;;;;;5154677;27;20505;-83
2023/03/14 07:26:04;;;;;;;8.27;2.90;;;9.10;99.90;;;;;;5154988;27;20087;-84
2023/03/14 07:28:30;;;;;;;13.32;3.55;;;9.10;99.90;;;;;;5154917;27;20042;-84
2023/03/14 07:30:55;;;;;;;12.40;3.30;;;9.10;99.90;;;;;;5154856;27;20043;-84
2023/03/14 07:33:21;;;;;;;5.88;2.88;;;9.10;99.90;;;;;;5136405;27;20129;-84
2023/03/14 07:35:48;;;;;;;6.22;2.75;;;9.10;99.90;;;;;;5118911;27;20047;-84
2023/03/14 07:38:14;;;;;;;8.32;3.15;;;9.10;99.90;;;;;;5137185;27;20043;-84
2023/03/14 07:40:40;;;;;;;5.63;2.63;;;9.10;99.90;;;;;;5154866;27;20078;-84
2023/03/14 07:43:05;;;;;;;9.93;3.25;;;9.00;99.90;;;;;;5136786;27;20053;-84
2023/03/14 07:45:31;;;;;;;9.05;2.05;;;9.00;99.90;;;;;;5122595;27;20127;-84
2023/03/14 07:47:57;;;;;;;3.55;1.80;;;8.90;99.90;;;;;;5122964;27;20169;-84
2023/03/14 07:50:24;;;;;;;7.28;2.15;;;8.80;99.90;;;;;;5122768;27;20058;-85
2023/03/14 07:52:51;;;;;;;3.17;1.70;;;8.70;99.90;;;;;;5123831;27;20085;-84
2023/03/14 07:55:17;;;;;;;4.78;1.60;;;8.70;99.90;;;;;;5123013;27;20078;-83
2023/03/14 07:57:42;;;;;;;3.13;1.25;;;8.60;99.90;;;;;;5122935;27;20134;-82
2023/03/14 08:00:10;;;;;;;3.08;1.23;;;8.50;99.90;;;;;;5158404;27;20111;-83
2023/03/14 08:02:36;;;;;;;3.47;1.30;;;8.40;99.90;;;;;;5140014;27;20051;-82
2023/03/14 08:05:03;;;;;;;4.22;1.00;;;7.90;99.90;;;;;;5158268;27;20095;-82
2023/03/14 08:07:29;;;;;;;1.83;0.90;;;7.70;99.90;;;;;;5139573;27;20051;-83
2023/03/14 08:09:55;;;;;;;4.00;1.20;;;7.30;99.90;;;;;;5158146;27;20083;-83
2023/03/14 08:12:20;;;;;;;3.55;0.90;;;7.10;99.90;;;;;;5158105;27;20486;-82
2023/03/14 08:14:46;;;;;;;3.25;1.30;;;6.90;99.90;;;;;;5139812;27;20038;-82
2023/03/14 08:17:12;;;;;;;4.20;1.33;;;6.80;99.90;;;;;;5158054;27;20467;-83
2023/03/14 08:19:37;;;;;;;2.13;1.10;;;6.70;99.90;;;;;;5139699;27;20389;-84
2023/03/14 08:22:04;;;;;;;1.98;0.90;;;6.50;99.90;;;;;;5139924;27;20050;-83
2023/03/14 08:24:30;;;;;;;2.05;1.00;;;6.30;99.90;;;;;;5122775;27;20043;-83
2023/03/14 08:26:55;;;;;;;4.68;1.15;;;7.10;99.90;;;;;;5157690;27;20063;-83
2023/03/14 08:29:21;;;;;;;2.05;0.90;;;6.00;99.90;;;;;;5139509;27;20049;-83
2023/03/14 08:31:48;;;;;;;3.20;1.55;;;5.80;99.90;;;;;;5157677;27;20038;-83
2023/03/14 08:34:14;;;;;;;2.03;1.05;;;5.70;99.90;;;;;;5157647;27;20046;-83
2023/03/14 08:36:40;;;;;;;1.65;1.00;;;5.70;99.90;;;;;;5157710;27;20087;-85
2023/03/14 08:39:07;;;;;;;1.17;0.93;;;5.70;99.90;;;;;;5157615;27;20046;-83
2023/03/14 08:41:33;;;;;;;0.90;0.80;;;5.40;99.90;;;;;;5139020;27;20565;-83
2023/03/14 08:43:58;;;;;;;0.98;0.90;;;5.30;99.90;;;;;;5139442;27;20074;-82
2023/03/14 08:46:24;;;;;;;1.58;0.90;;;6.50;99.90;;;;;;5121929;27;20091;-83
2023/03/14 08:48:50;;;;;;;0.70;0.70;;;4.80;99.90;;;;;;5138619;27;20034;-83
2023/03/14 08:51:15;;;;;;;1.10;0.90;;;4.80;99.90;;;;;;5138795;27;20054;-82
2023/03/14 08:53:41;;;;;;;1.63;0.90;;;4.90;99.90;;;;;;5139288;27;20485;-82
2023/03/14 08:56:09;;;;;;;1.58;1.10;;;4.80;99.90;;;;;;5137615;27;20051;-83
2023/03/14 08:58:37;;;;;;;2.30;0.95;;;4.70;99.90;;;;;;5138727;27;20042;-81
2023/03/14 09:01:04;;;;;;;3.72;1.15;;;4.80;99.90;;;;;;5138689;27;20050;-82
2023/03/14 09:03:30;;;;;;;5.43;1.00;;;4.80;99.90;;;;;;5138841;27;20106;-81
2023/03/14 09:05:56;;;;;;;4.88;0.95;;;4.70;99.90;;;;;;5157059;27;20126;-82
2023/03/14 09:08:21;;;;;;;1.27;1.00;;;4.70;99.90;;;;;;5138588;27;20035;-81
2023/03/14 09:10:47;;;;;;;3.15;1.02;;;4.90;99.90;;;;;;5138536;27;20050;-81
2023/03/14 09:13:12;;;;;;;0.85;0.82;;;4.90;99.90;;;;;;5156978;27;20047;-81
2023/03/14 09:15:38;;;;;;;1.25;0.90;;;5.40;99.90;;;;;;5138624;27;20459;-82
2023/03/14 09:18:04;;;;;;;2.83;0.93;;;5.50;99.90;;;;;;5138502;27;20505;-82
2023/03/14 09:20:30;;;;;;;3.20;1.00;;;4.90;99.90;;;;;;5156831;27;20088;-83
2023/03/14 09:22:55;;;;;;;1.23;0.90;;;4.90;99.90;;;;;;5156722;27;20125;-81
2023/03/14 09:25:21;;;;;;;2.15;1.00;;;5.00;99.90;;;;;;5156739;27;20031;-81
2023/03/14 09:27:47;;;;;;;3.28;1.02;;;5.00;99.90;;;;;;5138455;27;20104;-81
2023/03/14 09:30:12;;;;;;;3.78;1.40;;;5.00;99.90;;;;;;5121925;27;20042;-81
2023/03/14 09:32:38;;;;;;;3.88;1.42;;;5.00;99.90;;;;;;5156544;27;20477;-81
2023/03/14 09:35:04;;;;;;;1.65;1.10;;;5.10;99.90;;;;;;5157052;27;20512;-83
2023/03/14 09:37:29;;;;;;;2.58;1.00;;;5.20;99.90;;;;;;5156515;27;20039;-81
2023/03/14 09:39:55;;;;;;;4.00;1.45;;;5.30;99.90;;;;;;5121427;27;20126;-81
2023/03/14 09:42:25;;;;;;;4.40;1.20;;;5.30;99.90;;;;;;5156432;27;20390;-81
2023/03/14 09:44:59;;;;;;;4.38;1.30;;;5.40;99.90;;;;;;5137811;27;20043;-81
2023/03/14 09:47:26;;;;;;;3.83;1.00;;;5.40;99.90;;;;;;5156265;27;20126;-81
2023/03/14 09:49:52;;;;;;;6.50;1.40;;;5.60;99.90;;;;;;5138354;27;20390;-81
2023/03/14 09:52:31;;;;;;;4.05;1.60;;;5.70;99.90;;;;;;5156250;27;20043;-83
2023/03/14 09:55:04;;;;;;;3.38;1.42;;;5.90;99.90;;;;;;5138013;27;20058;-82
2023/03/14 09:57:33;;;;;;;5.97;2.00;;;6.00;99.90;;;;;;5155886;27;20566;-82
2023/03/14 10:00:13;;;;;;;3.42;1.35;;;6.10;99.90;;;;;;5156033;27;20061;-82
2023/03/14 10:02:42;;;;;;;11.25;1.88;;;6.10;99.90;;;;;;5138018;27;20047;-81
2023/03/14 10:05:19;;;;;;;10.85;2.38;;;6.30;99.90;;;;;;5155948;27;20042;-81
2023/03/14 10:07:45;;;;;;;7.57;2.13;;;6.50;99.90;;;;;;5119959;27;20498;-82
2023/03/14 10:10:18;;;;;;;12.60;2.05;;;6.50;99.90;;;;;;5155873;27;20116;-82
2023/03/14 10:13:15;;;;;;;9.85;2.05;;;6.60;99.90;;;;;;5138352;27;20042;-81
2023/03/14 10:15:46;;;;;;;10.75;1.98;;;6.70;99.90;;;;;;5133073;27;20059;-81
2023/03/14 10:18:13;;;;;;;13.88;2.55;;;6.70;99.90;;;;;;5137123;27;20038;-81
2023/03/14 10:20:42;;;;;;;7.07;1.60;;;6.70;99.90;;;;;;5155334;27;20482;-81
2023/03/14 10:23:14;;;;;;;11.05;2.90;;;6.90;99.90;;;;;;5155599;27;20489;-81
2023/03/14 10:25:45;;;;;;;13.23;2.40;;;6.80;99.90;;;;;;5137219;27;20050;-82
2023/03/14 10:28:39;;;;;;;9.52;2.80;;;6.70;99.90;;;;;;5137529;27;20043;-83
2023/03/14 10:31:04;;;;;;;16.70;2.92;;;6.80;99.90;;;;;;5137266;27;20126;-83
2023/03/14 10:33:35;;;;;;;8.77;2.42;;;6.70;99.90;;;;;;5155889;27;20130;-83
2023/03/14 10:36:22;;;;;;;7.97;2.33;;;6.70;99.90;;;;;;5155852;27;20129;-83
2023/03/14 10:38:48;;;;;;;13.23;2.78;;;7.50;99.90;;;;;;5155437;27;20501;-83
2023/03/14 10:41:24;;;;;;;12.35;2.10;;;6.20;99.90;;;;;;5155429;27;20045;-82
2023/03/14 10:43:53;;;;;;;11.00;2.28;;;6.20;99.90;;;;;;5155371;27;20039;-82
2023/03/14 10:46:20;;;;;;;17.17;2.85;;;6.00;99.90;;;;;;5137086;27;20051;-82
2023/03/14 10:48:49;;;;;;;11.13;2.13;;;5.90;99.90;;;;;;5155294;27;20114;-82
2023/03/14 10:51:25;;;;;;;15.55;2.72;;;6.00;99.90;;;;;;5136786;27;20279;-81
2023/03/14 10:53:58;;;;;;;15.52;2.50;;;6.10;99.90;;;;;;5155195;27;20493;-81
2023/03/14 10:56:25;;;;;;;12.52;3.70;;;6.20;99.90;;;;;;5155284;27;20371;-81
2023/03/14 10:58:57;;;;;;;10.63;2.15;;;6.40;99.90;;;;;;5155743;27;20042;-81
2023/03/14 11:01:37;;;;;;;13.10;2.95;;;6.20;99.90;;;;;;5155481;27;20046;-82
2023/03/14 11:04:25;;;;;;;19.85;4.35;;;6.10;99.90;;;;;;5137100;27;20090;-82
2023/03/14 11:07:03;;;;;;;25.55;3.22;;;6.20;99.90;;;;;;5155225;27;20039;-82
2023/03/14 11:09:35;;;;;;;14.52;3.15;;;6.10;99.90;;;;;;5154827;27;20470;-82
2023/03/14 11:12:39;;;;;;;13.25;3.03;;;6.10;99.90;;;;;;5120333;27;20099;-83
2023/03/14 11:15:42;;;;;;;11.70;2.72;;;6.20;99.90;;;;;;5121072;27;20068;-82
2023/03/14 11:18:22;;;;;;;16.35;3.03;;;6.10;99.90;;;;;;5155268;27;20042;-82
2023/03/14 11:21:06;;;;;;;7.95;1.77;;;6.30;99.90;;;;;;5139947;27;20043;-82
2023/03/14 11:23:40;;;;;;;15.23;2.63;;;6.40;99.90;;;;;;5159105;27;20067;-82
2023/03/14 11:26:18;;;;;;;11.57;2.97;;;6.60;99.90;;;;;;5159512;27;20050;-81
2023/03/14 11:28:48;;;;;;;;;;;6.70;99.90;;;;;;5159699;27;20401;-82
2023/03/14 11:31:25;;;;;;;13.20;3.25;;;6.70;99.90;;;;;;5158907;27;19919;-82
2023/03/14 11:34:11;;;;;;;14.23;2.33;;;6.70;99.90;;;;;;5159033;27;20054;-82
2023/03/14 11:37:19;;;;;;;10.20;2.20;;;6.80;99.90;;;;;;5140607;27;20319;-82
2023/03/14 11:39:51;;;;;;;15.52;2.30;;;7.00;99.90;;;;;;5122981;27;20494;-82
2023/03/14 11:42:17;;;;;;;7.22;2.00;;;6.90;99.90;;;;;;5140381;27;20505;-81
2023/03/14 11:44:49;;;;;;;12.52;2.53;;;7.00;99.90;;;;;;5158417;27;20539;-83
2023/03/14 11:47:37;;;;;;;8.82;1.80;;;7.00;99.90;;;;;;5140103;27;20047;-81
2023/03/14 11:50:23;;;;;;;7.97;1.70;;;7.00;99.90;;;;;;5158854;27;20114;-81
2023/03/14 11:53:11;;;;;;;14.07;2.05;;;7.10;99.90;;;;;;5158466;27;20098;-81
2023/03/14 11:55:40;;;;;;;12.52;2.17;;;7.00;99.90;;;;;;5158992;27;20038;-82
2023/03/14 11:58:29;;;;;;;5.88;2.13;;;7.00;99.90;;;;;;5158521;27;20043;-82
2023/03/14 12:00:56;;;;;;;4.63;1.80;;;7.50;99.90;;;;;;5158446;27;20121;-82
2023/03/14 12:03:31;;;;;;;5.43;1.55;;;6.80;99.90;;;;;;5158260;27;20038;-82
2023/03/14 12:06:21;;;;;;;11.85;1.80;;;7.70;99.90;;;;;;5158717;27;20364;-82
2023/03/14 12:09:00;;;;;;;4.40;1.20;;;7.00;99.90;;;;;;5157906;27;20655;-82
2023/03/14 12:11:40;;;;;;;8.40;1.58;;;7.10;99.90;;;;;;5139684;27;20091;-82
2023/03/14 12:14:31;;;;;;;8.20;2.40;;;8.00;99.90;;;;;;5158132;27;20042;-82
2023/03/14 12:17:04;;;;;;;3.72;1.50;;;7.50;99.90;;;;;;5139899;27;20096;-82
2023/03/14 12:19:33;;;;;;;6.85;1.88;;;7.60;99.90;;;;;;5158193;27;20053;-81
2023/03/14 12:22:21;;;;;;;9.18;1.55;;;7.40;99.90;;;;;;5157873;27;20035;-82
2023/03/14 12:24:51;;;;;;;4.82;1.50;;;7.10;99.90;;;;;;5157950;27;20053;-82
2023/03/14 12:27:55;;;;;;;5.28;2.67;;;7.20;99.90;;;;;;5158403;27;20049;-82
2023/03/14 12:30:39;;;;;;;6.82;1.70;;;7.20;99.90;;;;;;5036623;28;20135;-83
2023/03/14 12:33:16;;;;;;;5.68;1.60;;;7.30;99.90;;;;;;5151168;27;20053;-81
2023/03/14 12:35:42;;;;;;;;;;;7.60;99.90;;;;;;5158564;27;20437;-82
2023/03/14 12:38:26;;;;;;;4.35;1.40;;;7.60;99.90;;;;;;5157895;27;19919;-81
2023/03/14 12:41:24;;;;;;;7.93;1.45;;;7.60;99.90;;;;;;5157628;27;20047;-81
2023/03/14 12:43:50;;;;;;;5.28;1.50;;;7.70;99.90;;;;;;5139939;27;20042;-80
2023/03/14 12:46:22;;;;;;;4.25;1.48;;;7.70;99.90;;;;;;5139725;27;20067;-81
2023/03/14 12:49:01;;;;;;;4.70;1.33;;;8.10;99.90;;;;;;5138608;27;20493;-80
2023/03/14 12:51:46;;;;;;;1.88;1.02;;;7.40;99.90;;;;;;5138793;27;20062;-80
2023/03/14 12:54:44;;;;;;;3.85;1.27;;;7.40;99.90;;;;;;5122086;27;20043;-81
2023/03/14 12:57:47;;;;;;;3.60;1.45;;;7.30;99.90;;;;;;5122132;27;20051;-82
2023/03/14 13:00:20;;;;;;;9.63;1.80;;;7.40;99.90;;;;;;5037119;28;20060;-81
2023/03/14 13:02:48;;;;;;;8.55;2.97;;;7.50;99.90;;;;;;5142825;27;20435;-81